createdAt,value
2023-05-19T00:00:31.181Z,100946.44
2023-05-19T00:03:40.831Z,100943.06
2023-05-19T00:06:51.059Z,100945.72
2023-05-19T00:09:54.234Z,100946.31
2023-05-19T00:12:57.790Z,100949.84
2023-05-19T00:16:00.888Z,100950.53
2023-05-19T00:19:05.765Z,100950.53
2023-05-19T00:22:08.303Z,100949.84
2023-05-19T00:25:10.906Z,100956.50
2023-05-19T00:28:13.521Z,100945.28
2023-05-19T00:31:18.678Z,100940.50
2023-05-19T00:34:21.283Z,100935.69
2023-05-19T00:37:23.979Z,100934.00
2023-05-19T00:40:28.114Z,100935.94
2023-05-19T00:43:31.230Z,100927.25
2023-05-19T00:46:34.284Z,100931.03
2023-05-19T00:49:37.159Z,100921.63
2023-05-19T00:52:39.868Z,100930.69
2023-05-19T00:55:43.001Z,100923.22
2023-05-19T00:58:50.835Z,100917.31
2023-05-19T01:01:54.703Z,100923.72
2023-05-19T01:04:57.507Z,100915.56
2023-05-19T01:08:00.116Z,100922.13
2023-05-19T01:11:03.463Z,100920.16
2023-05-19T01:14:06.153Z,100920.38
2023-05-19T01:17:31.613Z,100926.13
2023-05-19T01:20:41.785Z,100919.59
2023-05-19T01:23:58.236Z,100929.47
2023-05-19T01:27:20.449Z,100930.28
2023-05-19T01:30:40.047Z,100937.59
2023-05-19T01:33:43.904Z,100929.72
2023-05-19T01:36:49.968Z,100925.75
2023-05-19T01:39:53.484Z,100923.81
2023-05-19T01:42:58.328Z,100922.38
2023-05-19T01:46:02.804Z,100914.78
2023-05-19T01:49:10.626Z,100908.06
2023-05-19T01:52:13.249Z,100916.72
2023-05-19T01:55:17.206Z,100918.69
2023-05-19T01:58:20.800Z,100925.34
2023-05-19T02:01:30.069Z,100918.34
2023-05-19T02:04:42.427Z,100924.28
2023-05-19T02:07:55.755Z,100925.47
2023-05-19T02:11:07.378Z,100924.53
2023-05-19T02:14:18.287Z,100927.63
2023-05-19T02:17:23.454Z,100929.91
2023-05-19T02:20:26.741Z,100932.44
2023-05-19T02:23:29.423Z,100928.34
2023-05-19T02:26:33.224Z,100924.84
2023-05-19T02:29:35.911Z,100922.19
2023-05-19T02:32:38.564Z,100916.28
2023-05-19T02:35:41.150Z,100924.03
2023-05-19T02:38:43.793Z,100918.41
2023-05-19T02:41:46.402Z,100916.72
2023-05-19T02:44:49.784Z,100919.22
2023-05-19T02:47:53.016Z,100911.63
2023-05-19T02:50:57.461Z,100918.75
2023-05-19T02:54:00.094Z,100915.34
2023-05-19T02:57:02.833Z,100908.47
2023-05-19T03:00:06.958Z,100921.28
2023-05-19T03:03:11.748Z,100926.03
2023-05-19T03:06:15.681Z,100912.72
2023-05-19T03:09:18.742Z,100924.56
2023-05-19T03:12:21.972Z,100923.38
2023-05-19T03:15:24.763Z,100928.81
2023-05-19T03:18:28.059Z,100924.31
2023-05-19T03:21:32.228Z,100934.59
2023-05-19T03:24:34.856Z,100942.94
2023-05-19T03:27:39.224Z,100939.78
2023-05-19T03:30:47.394Z,100932.78
2023-05-19T03:33:54.412Z,100936.59
2023-05-19T03:36:58.085Z,100937.31
2023-05-19T03:40:02.151Z,100932.44
2023-05-19T03:43:05.455Z,100930.00
2023-05-19T03:46:12.002Z,100928.63
2023-05-19T03:49:17.746Z,100932.00
2023-05-19T03:52:49.588Z,100935.22
2023-05-19T03:56:18.814Z,100933.75
2023-05-19T03:59:21.503Z,100936.69
2023-05-19T04:02:25.719Z,100940.50
2023-05-19T04:05:28.358Z,100939.97
2023-05-19T04:08:31.124Z,100940.41
2023-05-19T04:11:34.761Z,100942.53
2023-05-19T04:14:37.395Z,100933.34
2023-05-19T04:17:40.368Z,100946.31
2023-05-19T04:20:43.053Z,100947.34
2023-05-19T04:23:45.773Z,100955.31
2023-05-19T04:26:48.392Z,100956.94
2023-05-19T04:29:53.076Z,100959.25
2023-05-19T04:32:58.240Z,100948.53
2023-05-19T04:36:05.634Z,100950.28
2023-05-19T04:39:12.133Z,100963.59
2023-05-19T04:42:21.450Z,100972.94
2023-05-19T04:45:26.201Z,100961.91
2023-05-19T04:48:34.162Z,100969.78
2023-05-19T04:51:36.769Z,100970.19
2023-05-19T04:54:40.299Z,100968.13
2023-05-19T04:57:44.212Z,100967.88
2023-05-19T05:00:47.180Z,100969.03
2023-05-19T05:03:50.092Z,100971.59
2023-05-19T05:06:52.667Z,100974.13
2023-05-19T05:09:57.898Z,100972.88
2023-05-19T05:13:02.050Z,100966.28
2023-05-19T05:16:06.675Z,100973.16
2023-05-19T05:19:09.804Z,100974.94
2023-05-19T05:22:15.208Z,100983.47
2023-05-19T05:25:18.420Z,100984.31
2023-05-19T05:28:21.557Z,100984.22
2023-05-19T05:31:24.212Z,100981.19
2023-05-19T05:34:27.344Z,100978.06
2023-05-19T05:37:31.038Z,100982.06
2023-05-19T05:40:33.614Z,100979.28
2023-05-19T05:43:36.973Z,100981.19
2023-05-19T05:46:41.343Z,100974.13
2023-05-19T05:49:48.220Z,100975.53
2023-05-19T05:52:53.951Z,100977.69
2023-05-19T05:55:57.481Z,100984.19
2023-05-19T05:59:04.410Z,100990.66
2023-05-19T06:02:07.184Z,100988.09
2023-05-19T06:05:12.507Z,100985.00
2023-05-19T06:08:15.563Z,100983.13
2023-05-19T06:11:19.824Z,100985.06
2023-05-19T06:14:23.599Z,100994.56
2023-05-19T06:17:53.248Z,100982.25
2023-05-19T06:20:56.179Z,100999.47
2023-05-19T06:23:58.911Z,100995.97
2023-05-19T06:27:02.160Z,101003.22
2023-05-19T06:30:05.277Z,101002.31
2023-05-19T06:33:14.494Z,100989.84
2023-05-19T06:36:17.324Z,101015.63
2023-05-19T06:39:21.145Z,101018.25
2023-05-19T06:42:25.332Z,101026.59
2023-05-19T06:45:34.544Z,101025.47
2023-05-19T06:48:39.574Z,101015.66
2023-05-19T06:51:43.709Z,101020.59
2023-05-19T06:54:46.529Z,101020.53
2023-05-19T06:57:49.147Z,101024.19
2023-05-19T07:00:53.591Z,101028.59
2023-05-19T07:03:59.079Z,101018.66
2023-05-19T07:07:01.929Z,101017.59
2023-05-19T07:10:07.974Z,101019.34
2023-05-19T07:13:10.532Z,101011.69
2023-05-19T07:16:13.152Z,101010.34
2023-05-19T07:19:16.233Z,101009.19
2023-05-19T07:22:21.123Z,101009.34
2023-05-19T07:25:23.930Z,101003.66
2023-05-19T07:28:26.686Z,100998.88
2023-05-19T07:31:30.545Z,100995.69
2023-05-19T07:34:33.160Z,100998.88
2023-05-19T07:37:36.195Z,100988.84
2023-05-19T07:40:38.842Z,100989.19
2023-05-19T07:43:41.824Z,100981.81
2023-05-19T07:46:44.546Z,100986.84
2023-05-19T07:49:49.691Z,100984.50
2023-05-19T07:52:53.729Z,100991.03
2023-05-19T07:55:58.686Z,100986.81
2023-05-19T07:59:02.495Z,100990.16
2023-05-19T08:02:05.273Z,100989.09
2023-05-19T08:05:09.790Z,100982.16
2023-05-19T08:08:12.897Z,100977.25
2023-05-19T08:11:15.521Z,100985.53
2023-05-19T08:14:18.313Z,100973.16
2023-05-19T08:17:20.972Z,100974.31
2023-05-19T08:20:24.415Z,100963.69
2023-05-19T08:23:28.307Z,100975.28
2023-05-19T08:26:30.899Z,100971.75
2023-05-19T08:29:33.564Z,100963.00
2023-05-19T08:32:36.511Z,100969.72
2023-05-19T08:35:39.059Z,100963.94
2023-05-19T08:38:41.664Z,100963.44
2023-05-19T08:41:44.655Z,100961.06
2023-05-19T08:44:47.244Z,100953.50
2023-05-19T08:47:51.521Z,100964.66
2023-05-19T08:50:58.541Z,100957.47
2023-05-19T08:54:15.992Z,100964.25
2023-05-19T08:57:19.191Z,100960.06
2023-05-19T09:00:22.768Z,100959.59
2023-05-19T09:03:26.691Z,100956.72
2023-05-19T09:06:32.424Z,100949.75
2023-05-19T09:09:36.221Z,100952.19
2023-05-19T09:12:38.809Z,100949.63
2023-05-19T09:15:43.006Z,100963.66
2023-05-19T09:18:58.480Z,100955.84
2023-05-19T09:22:05.123Z,100962.91
2023-05-19T09:25:20.265Z,100956.22
2023-05-19T09:28:33.776Z,100958.09
2023-05-19T09:31:36.430Z,100951.63
2023-05-19T09:34:42.200Z,100950.13
2023-05-19T09:37:44.796Z,100945.94
2023-05-19T09:40:49.896Z,100947.66
2023-05-19T09:43:56.341Z,100955.63
2023-05-19T09:47:00.278Z,100945.72
2023-05-19T09:50:04.647Z,100932.22
2023-05-19T09:53:07.798Z,100944.72
2023-05-19T09:56:11.125Z,100931.28
2023-05-19T09:59:16.370Z,100929.47
2023-05-19T10:02:21.789Z,100923.25
2023-05-19T10:05:24.624Z,100914.97
2023-05-19T10:08:30.623Z,100916.66
2023-05-19T10:11:33.852Z,100923.88
2023-05-19T10:14:38.316Z,100918.78
2023-05-19T10:17:43.653Z,100920.69
2023-05-19T10:20:48.792Z,100909.47
2023-05-19T10:23:51.534Z,100897.47
2023-05-19T10:27:05.609Z,100904.06
2023-05-19T10:30:16.355Z,100895.69
2023-05-19T10:33:21.218Z,100895.06
2023-05-19T10:36:39.766Z,100893.19
2023-05-19T10:39:44.383Z,100901.41
2023-05-19T10:44:35.856Z,100891.72
2023-05-19T10:47:41.809Z,100889.69
2023-05-19T10:50:46.829Z,100878.81
2023-05-19T10:53:50.303Z,100881.31
2023-05-19T10:56:57.752Z,100877.66
2023-05-19T11:00:11.623Z,100873.06
2023-05-19T11:03:19.156Z,100858.22
2023-05-19T11:06:25.192Z,100871.03
2023-05-19T11:09:37.965Z,100861.88
2023-05-19T11:12:45.672Z,100856.03
2023-05-19T11:15:49.942Z,100860.00
2023-05-19T11:18:55.156Z,100864.19
2023-05-19T11:22:08.918Z,100875.94
2023-05-19T11:25:11.527Z,100852.91
2023-05-19T11:28:25.757Z,100852.19
2023-05-19T11:31:30.920Z,100831.38
2023-05-19T11:34:34.040Z,100838.38
2023-05-19T11:37:37.186Z,100840.78
2023-05-19T11:40:42.291Z,100832.63
2023-05-19T11:43:47.863Z,100830.66
2023-05-19T11:46:50.862Z,100832.03
2023-05-19T11:49:56.674Z,100825.19
2023-05-19T11:53:01.394Z,100825.84
2023-05-19T11:56:05.720Z,100834.09
2023-05-19T11:59:10.971Z,100830.34
2023-05-19T12:02:14.087Z,100831.06
2023-05-19T12:05:27.257Z,100817.59
2023-05-19T12:08:30.177Z,100816.84
2023-05-19T12:11:33.262Z,100820.16
2023-05-19T12:14:36.201Z,100823.88
2023-05-19T12:17:39.166Z,100808.56
2023-05-19T12:20:42.384Z,100801.66
2023-05-19T12:23:45.259Z,100786.63
2023-05-19T12:26:51.987Z,100791.97
2023-05-19T12:30:00.260Z,100776.22
2023-05-19T12:33:03.690Z,100790.53
2023-05-19T12:36:07.745Z,100799.31
2023-05-19T12:39:11.696Z,100790.25
2023-05-19T12:42:16.165Z,100790.34
2023-05-19T12:45:21.615Z,100785.06
2023-05-19T12:48:24.354Z,100773.22
2023-05-19T12:51:26.963Z,100770.09
2023-05-19T12:54:34.471Z,100761.47
2023-05-19T12:57:39.091Z,100756.63
2023-05-19T13:00:43.834Z,100764.41
2023-05-19T13:03:48.657Z,100758.53
2023-05-19T13:06:53.869Z,100758.94
2023-05-19T13:09:58.066Z,100757.72
2023-05-19T13:13:01.142Z,100770.41
2023-05-19T13:16:04.988Z,100758.31
2023-05-19T13:19:21.207Z,100750.28
2023-05-19T13:22:28.596Z,100744.81
2023-05-19T13:25:32.849Z,100755.19
2023-05-19T13:28:35.629Z,100734.34
2023-05-19T13:31:38.508Z,100741.66
2023-05-19T13:34:42.516Z,100734.22
2023-05-19T13:37:46.513Z,100725.16
2023-05-19T13:40:49.126Z,100727.75
2023-05-19T13:43:53.151Z,100717.19
2023-05-19T13:46:57.248Z,100720.25
2023-05-19T13:50:00.353Z,100718.94
2023-05-19T13:53:03.735Z,100715.13
2023-05-19T13:56:07.172Z,100706.09
2023-05-19T13:59:09.749Z,100719.88
2023-05-19T14:02:12.851Z,100710.38
2023-05-19T14:05:15.520Z,100701.31
2023-05-19T14:08:18.955Z,100708.50
2023-05-19T14:11:21.901Z,100716.03
2023-05-19T14:14:27.498Z,100719.56
2023-05-19T14:17:30.089Z,100715.72
2023-05-19T14:20:33.104Z,100715.06
2023-05-19T14:23:35.921Z,100713.84
2023-05-19T14:26:38.618Z,100712.34
2023-05-19T14:29:43.390Z,100729.06
2023-05-19T14:32:46.022Z,100730.78
2023-05-19T14:35:48.615Z,100720.44
2023-05-19T14:38:51.158Z,100715.69
2023-05-19T14:41:53.813Z,100724.25
2023-05-19T14:44:56.380Z,100723.13
2023-05-19T14:47:59.218Z,100728.13
2023-05-19T14:51:01.947Z,100720.09
2023-05-19T14:54:04.726Z,100719.69
2023-05-19T14:57:08.241Z,100715.25
2023-05-19T15:00:11.312Z,100718.06
2023-05-19T15:03:14.905Z,100716.84
2023-05-19T15:06:17.620Z,100708.16
2023-05-19T15:09:20.165Z,100705.91
2023-05-19T15:12:22.792Z,100706.06
2023-05-19T15:15:25.467Z,100700.09
2023-05-19T15:18:28.062Z,100695.44
2023-05-19T15:21:31.341Z,100703.94
2023-05-19T15:24:34.132Z,100701.53
2023-05-19T15:27:36.782Z,100721.28
2023-05-19T15:30:39.984Z,100711.75
2023-05-19T15:33:42.788Z,100709.50
2023-05-19T15:36:45.820Z,100705.31
2023-05-19T15:39:48.559Z,100707.00
2023-05-19T15:42:51.155Z,100708.69
2023-05-19T15:45:55.350Z,100703.69
2023-05-19T15:48:59.291Z,100706.56
2023-05-19T15:52:04.081Z,100705.53
2023-05-19T15:55:07.510Z,100702.94
2023-05-19T15:58:10.362Z,100705.44
2023-05-19T16:01:18.232Z,100694.59
2023-05-19T16:04:21.302Z,100709.22
2023-05-19T16:07:24.369Z,100702.75
2023-05-19T16:10:27.068Z,100704.84
2023-05-19T16:13:31.017Z,100710.72
2023-05-19T16:16:33.821Z,100715.34
2023-05-19T16:19:36.578Z,100723.41
2023-05-19T16:22:39.442Z,100713.84
2023-05-19T16:25:42.085Z,100725.50
2023-05-19T16:28:44.673Z,100715.03
2023-05-19T16:31:47.340Z,100722.13
2023-05-19T16:34:50.210Z,100726.28
2023-05-19T16:37:53.853Z,100732.81
2023-05-19T16:40:56.633Z,100727.94
2023-05-19T16:43:59.452Z,100731.06
2023-05-19T16:47:02.034Z,100732.59
2023-05-19T16:50:04.828Z,100738.25
2023-05-19T16:53:07.446Z,100725.31
2023-05-19T16:56:10.390Z,100720.94
2023-05-19T16:59:13.921Z,100721.53
2023-05-19T17:02:17.203Z,100717.94
2023-05-19T17:05:20.196Z,100729.28
2023-05-19T17:08:23.249Z,100720.03
2023-05-19T17:11:27.416Z,100723.47
2023-05-19T17:14:30.624Z,100718.09
2023-05-19T17:17:33.836Z,100717.78
2023-05-19T17:20:36.988Z,100729.56
2023-05-19T17:23:40.485Z,100725.69
2023-05-19T17:26:43.436Z,100734.69
2023-05-19T17:29:46.455Z,100724.38
2023-05-19T17:32:49.628Z,100732.38
2023-05-19T17:35:52.722Z,100733.47
2023-05-19T17:38:55.593Z,100736.91
2023-05-19T17:41:58.355Z,100747.53
2023-05-19T17:45:04.428Z,100747.84
2023-05-19T17:48:07.275Z,100741.88
2023-05-19T17:51:09.958Z,100748.97
2023-05-19T17:54:13.122Z,100750.88
2023-05-19T17:57:17.841Z,100754.22
2023-05-19T18:00:21.207Z,100750.81
2023-05-19T18:03:24.827Z,100753.69
2023-05-19T18:06:29.619Z,100746.88
2023-05-19T18:09:36.639Z,100743.88
2023-05-19T18:12:39.489Z,100751.19
2023-05-19T18:15:43.448Z,100745.34
2023-05-19T18:18:50.578Z,100744.09
2023-05-19T18:21:53.614Z,100741.28
2023-05-19T18:24:59.931Z,100737.22
2023-05-19T18:28:02.617Z,100751.53
2023-05-19T18:31:06.194Z,100760.84
2023-05-19T18:34:08.986Z,100763.56
2023-05-19T18:37:12.337Z,100760.44
2023-05-19T18:40:15.076Z,100760.63
2023-05-19T18:43:18.699Z,100772.09
2023-05-19T18:46:22.127Z,100767.75
2023-05-19T18:49:25.486Z,100773.81
2023-05-19T18:52:29.180Z,100783.25
2023-05-19T18:55:32.148Z,100779.22
2023-05-19T18:58:36.108Z,100778.91
2023-05-19T19:01:39.114Z,100778.78
2023-05-19T19:04:42.186Z,100773.72
2023-05-19T19:07:45.161Z,100778.91
2023-05-19T19:10:50.491Z,100782.28
2023-05-19T19:13:55.593Z,100776.41
2023-05-19T19:16:58.236Z,100783.31
2023-05-19T19:20:01.179Z,100793.72
2023-05-19T19:23:06.971Z,100793.03
2023-05-19T19:26:09.858Z,100790.34
2023-05-19T19:29:12.484Z,100803.09
2023-05-19T19:32:15.071Z,100801.75
2023-05-19T19:35:17.871Z,100805.78
2023-05-19T19:38:21.655Z,100797.88
2023-05-19T19:41:25.422Z,100812.00
2023-05-19T19:44:28.248Z,100815.50
2023-05-19T19:47:31.361Z,100810.97
2023-05-19T19:50:34.740Z,100810.31
2023-05-19T19:53:37.698Z,100814.84
2023-05-19T19:56:40.528Z,100814.19
2023-05-19T19:59:43.857Z,100822.25
2023-05-19T20:05:56.466Z,100820.91
2023-05-19T20:08:59.829Z,100824.25
2023-05-19T20:12:02.590Z,100827.59
2023-05-19T20:15:07.575Z,100817.72
2023-05-19T20:18:11.335Z,100825.28
2023-05-19T20:21:15.078Z,100821.06
2023-05-19T20:24:17.881Z,100816.00
2023-05-19T20:27:20.446Z,100820.91
2023-05-19T20:30:23.247Z,100811.19
2023-05-19T20:33:26.538Z,100810.19
2023-05-19T20:36:29.384Z,100829.97
2023-05-19T20:39:32.072Z,100817.06
2023-05-19T20:42:34.688Z,100822.91
2023-05-19T20:45:37.767Z,100819.22
2023-05-19T20:48:40.822Z,100810.50
2023-05-19T20:51:43.428Z,100811.34
2023-05-19T20:54:46.586Z,100821.75
2023-05-19T20:57:49.153Z,100826.78
2023-05-19T21:00:57.739Z,100818.91
2023-05-19T21:04:01.356Z,100824.59
2023-05-19T21:07:04.107Z,100818.22
2023-05-19T21:10:07.584Z,100820.56
2023-05-19T21:13:10.216Z,100801.28
2023-05-19T21:16:12.997Z,100812.00
2023-05-19T21:19:15.749Z,100815.53
2023-05-19T21:22:18.333Z,100815.34
2023-05-19T21:25:20.919Z,100825.03
2023-05-19T21:28:23.449Z,100816.78
2023-05-19T21:31:26.197Z,100819.25
2023-05-19T21:34:28.912Z,100821.44
2023-05-19T21:37:31.825Z,100828.09
2023-05-19T21:40:34.787Z,100816.38
2023-05-19T21:43:37.732Z,100809.31
2023-05-19T21:46:40.252Z,100813.38
2023-05-19T21:49:43.015Z,100808.66
2023-05-19T21:52:47.082Z,100812.66
2023-05-19T21:55:49.685Z,100803.75
2023-05-19T21:58:52.363Z,100811.91
2023-05-19T22:01:54.937Z,100811.53
2023-05-19T22:04:57.700Z,100813.34
2023-05-19T22:08:00.781Z,100807.66
2023-05-19T22:11:03.460Z,100803.91
2023-05-19T22:14:06.079Z,100792.69
2023-05-19T22:17:09.008Z,100796.13
2023-05-19T22:20:12.101Z,100790.63
2023-05-19T22:23:15.163Z,100789.94
2023-05-19T22:26:17.740Z,100780.06
2023-05-19T22:29:20.912Z,100782.75
2023-05-19T22:32:23.662Z,100779.38
2023-05-19T22:35:26.351Z,100778.84
2023-05-19T22:38:29.458Z,100779.31
2023-05-19T22:41:32.422Z,100772.91
2023-05-19T22:44:35.847Z,100778.09
2023-05-19T22:47:38.559Z,100780.06
2023-05-19T22:50:41.477Z,100783.06
2023-05-19T22:53:46.634Z,100784.06
2023-05-19T22:56:49.309Z,100773.84
2023-05-19T22:59:51.871Z,100756.75
2023-05-19T23:02:55.776Z,100764.94
2023-05-19T23:05:58.470Z,100762.75
2023-05-19T23:09:02.332Z,100755.19
2023-05-19T23:12:06.566Z,100759.22
2023-05-19T23:15:11.111Z,100760.22
2023-05-19T23:18:15.171Z,100757.81
2023-05-19T23:21:19.468Z,100762.78
2023-05-19T23:24:21.932Z,100760.13
2023-05-19T23:27:24.977Z,100755.78
2023-05-19T23:30:31.509Z,100757.75
2023-05-19T23:33:36.082Z,100758.22
2023-05-19T23:36:38.787Z,100748.13
2023-05-19T23:39:41.367Z,100756.09
2023-05-19T23:42:44.725Z,100756.19
2023-05-19T23:45:47.381Z,100757.84
2023-05-19T23:48:51.258Z,100757.84
2023-05-19T23:51:55.640Z,100751.41
2023-05-19T23:54:58.344Z,100752.72
2023-05-19T23:58:02.041Z,100743.00
